createdAt,value
2019-01-09T00:01:09.110Z,2.65
2019-01-09T00:03:38.025Z,2.67
2019-01-09T00:06:07.002Z,2.60
2019-01-09T00:08:36.171Z,2.52
2019-01-09T00:11:05.136Z,2.53
2019-01-09T00:13:34.119Z,2.49
2019-01-09T00:16:03.126Z,2.52
2019-01-09T00:18:32.080Z,2.52
2019-01-09T00:21:01.085Z,2.53
2019-01-09T00:23:30.067Z,2.52
2019-01-09T00:25:59.143Z,2.51
2019-01-09T00:28:28.116Z,2.51
2019-01-09T00:30:57.081Z,2.53
2019-01-09T00:33:26.006Z,2.50
2019-01-09T00:35:55.082Z,2.48
2019-01-09T00:38:24.102Z,2.47
2019-01-09T00:40:53.074Z,2.41
2019-01-09T00:43:22.026Z,2.40
2019-01-09T00:45:50.994Z,2.37
2019-01-09T00:48:19.961Z,2.38
2019-01-09T00:50:48.927Z,2.32
2019-01-09T00:53:17.890Z,2.32
2019-01-09T00:55:46.952Z,2.35
2019-01-09T00:58:16.266Z,2.28
2019-01-09T01:00:45.279Z,2.30
2019-01-09T01:03:48.383Z,2.34
2019-01-09T01:06:51.320Z,2.27
2019-01-09T01:10:00.912Z,2.23
2019-01-09T01:13:13.071Z,2.21
2019-01-09T01:16:34.390Z,2.26
2019-01-09T01:19:46.579Z,2.28
2019-01-09T01:22:42.028Z,2.36
2019-01-09T01:25:29.462Z,2.29
2019-01-09T01:28:38.309Z,2.28
2019-01-09T01:31:26.743Z,2.40
2019-01-09T01:34:48.962Z,2.35
2019-01-09T01:38:02.064Z,2.39
2019-01-09T01:41:00.481Z,2.41
2019-01-09T01:44:25.791Z,2.40
2019-01-09T01:47:45.152Z,2.44
2019-01-09T01:50:31.085Z,2.43
2019-01-09T01:53:59.469Z,2.44
2019-01-09T01:57:09.883Z,2.34
2019-01-09T01:59:54.317Z,2.28
2019-01-09T02:03:06.706Z,2.25
2019-01-09T02:05:43.456Z,2.30
2019-01-09T02:08:38.422Z,2.25
2019-01-09T02:11:59.936Z,2.27
2019-01-09T02:15:00.713Z,2.24
2019-01-09T02:17:51.783Z,2.28
2019-01-09T02:20:54.740Z,2.39
2019-01-09T02:23:41.440Z,2.35
2019-01-09T02:26:31.190Z,2.38
2019-01-09T02:29:41.447Z,2.38
2019-01-09T02:32:29.102Z,2.33
2019-01-09T02:34:58.122Z,2.38
2019-01-09T02:37:27.295Z,2.33
2019-01-09T02:39:56.255Z,2.35
2019-01-09T02:42:25.337Z,2.26
2019-01-09T02:44:54.366Z,2.33
2019-01-09T02:47:23.429Z,2.32
2019-01-09T02:49:52.464Z,2.25
2019-01-09T02:52:21.527Z,2.23
2019-01-09T02:54:50.552Z,2.05
2019-01-09T02:57:19.601Z,1.94
2019-01-09T02:59:48.527Z,1.97
2019-01-09T03:02:17.510Z,1.80
2019-01-09T03:04:46.490Z,1.70
2019-01-09T03:07:15.313Z,1.67
2019-01-09T03:09:44.223Z,1.60
2019-01-09T03:12:13.197Z,1.62
2019-01-09T03:14:42.279Z,1.69
2019-01-09T03:17:11.263Z,1.69
2019-01-09T03:19:40.149Z,1.73
2019-01-09T03:22:09.166Z,1.80
2019-01-09T03:24:38.135Z,1.84
2019-01-09T03:27:07.043Z,1.78
2019-01-09T03:29:36.011Z,1.82
2019-01-09T03:32:05.005Z,1.87
2019-01-09T03:34:33.990Z,1.88
2019-01-09T03:37:02.977Z,1.87
2019-01-09T03:39:31.969Z,1.89
2019-01-09T03:42:00.961Z,1.96
2019-01-09T03:44:29.959Z,2.08
2019-01-09T03:46:58.944Z,2.08
2019-01-09T03:49:27.766Z,2.10
2019-01-09T03:51:56.654Z,2.16
2019-01-09T03:54:25.557Z,2.03
2019-01-09T03:56:54.523Z,2.14
2019-01-09T03:59:23.439Z,2.16
2019-01-09T04:01:52.342Z,2.18
2019-01-09T04:04:21.251Z,2.19
2019-01-09T04:06:50.140Z,2.14
2019-01-09T04:09:19.133Z,2.12
2019-01-09T04:11:48.118Z,2.14
2019-01-09T04:14:17.086Z,2.10
2019-01-09T04:16:45.966Z,2.13
2019-01-09T04:19:14.866Z,2.05
2019-01-09T04:21:43.829Z,1.98
2019-01-09T04:24:12.737Z,1.94
2019-01-09T04:26:41.579Z,1.99
2019-01-09T04:29:10.406Z,2.05
2019-01-09T04:31:39.238Z,2.07
2019-01-09T04:34:08.173Z,2.11
2019-01-09T04:36:37.059Z,2.05
2019-01-09T04:39:06.977Z,2.06
2019-01-09T04:41:35.866Z,2.02
2019-01-09T04:44:04.855Z,2.04
2019-01-09T04:46:33.743Z,2.07
2019-01-09T04:49:02.576Z,2.10
2019-01-09T04:51:31.548Z,2.09
2019-01-09T04:54:00.401Z,2.13
2019-01-09T04:56:29.372Z,2.13
2019-01-09T04:58:58.284Z,2.11
2019-01-09T05:01:27.172Z,2.09
2019-01-09T05:03:56.162Z,2.16
2019-01-09T05:06:25.054Z,2.14
2019-01-09T05:08:53.957Z,2.20
2019-01-09T05:11:22.855Z,2.15
2019-01-09T05:13:51.806Z,2.21
2019-01-09T05:16:20.760Z,2.16
2019-01-09T05:18:49.573Z,2.19
2019-01-09T05:21:18.541Z,2.21
2019-01-09T05:23:47.433Z,2.24
2019-01-09T05:26:16.279Z,2.24
2019-01-09T05:28:45.170Z,2.19
2019-01-09T05:31:13.997Z,2.13
2019-01-09T05:33:42.885Z,2.12
2019-01-09T05:36:11.876Z,1.96
2019-01-09T05:38:40.789Z,1.83
2019-01-09T05:41:09.765Z,1.87
2019-01-09T05:43:38.591Z,1.96
2019-01-09T05:46:07.519Z,1.97
2019-01-09T05:48:36.496Z,2.08
2019-01-09T05:51:05.405Z,2.06
2019-01-09T05:53:34.413Z,2.01
2019-01-09T05:56:03.400Z,2.00
2019-01-09T05:58:32.217Z,2.03
2019-01-09T06:01:01.175Z,1.93
2019-01-09T06:03:30.143Z,1.89
2019-01-09T06:05:59.114Z,1.86
2019-01-09T06:08:27.923Z,1.75
2019-01-09T06:10:56.837Z,1.66
2019-01-09T06:13:25.805Z,1.67
2019-01-09T06:15:54.732Z,1.72
2019-01-09T06:18:23.620Z,1.69
2019-01-09T06:20:52.466Z,1.55
2019-01-09T06:23:21.344Z,1.59
2019-01-09T06:25:50.172Z,1.67
2019-01-09T06:28:19.074Z,1.56
2019-01-09T06:30:47.963Z,1.57
2019-01-09T06:33:16.869Z,1.54
2019-01-09T06:35:45.847Z,1.39
2019-01-09T06:38:14.856Z,1.28
2019-01-09T06:40:43.799Z,1.36
2019-01-09T06:43:12.777Z,1.40
2019-01-09T06:45:41.585Z,1.45
2019-01-09T06:48:10.701Z,1.51
2019-01-09T06:50:39.672Z,1.50
2019-01-09T06:53:08.578Z,1.40
2019-01-09T06:55:37.511Z,1.37
2019-01-09T06:58:06.288Z,1.38
2019-01-09T07:00:35.246Z,1.34
2019-01-09T07:03:04.064Z,1.37
2019-01-09T07:05:32.945Z,1.31
2019-01-09T07:08:01.784Z,1.32
2019-01-09T07:10:30.670Z,1.40
2019-01-09T07:12:59.587Z,1.33
2019-01-09T07:15:28.479Z,1.38
2019-01-09T07:17:57.289Z,1.33
2019-01-09T07:20:26.267Z,1.36
2019-01-09T07:22:55.258Z,1.34
2019-01-09T07:25:24.083Z,1.37
2019-01-09T07:27:53.054Z,1.44
2019-01-09T07:30:22.031Z,1.45
2019-01-09T07:32:50.937Z,1.50
2019-01-09T07:35:19.833Z,1.61
2019-01-09T07:37:48.821Z,1.61
2019-01-09T07:40:18.897Z,1.65
2019-01-09T07:42:47.981Z,1.69
2019-01-09T07:45:16.863Z,1.65
2019-01-09T07:47:45.801Z,1.64
2019-01-09T07:50:14.775Z,1.68
2019-01-09T07:52:43.599Z,1.72
2019-01-09T07:55:12.554Z,1.73
2019-01-09T07:57:41.457Z,1.79
2019-01-09T08:00:11.673Z,1.79
2019-01-09T08:02:40.636Z,1.80
2019-01-09T08:05:09.580Z,1.78
2019-01-09T08:07:38.465Z,1.78
2019-01-09T08:10:09.184Z,1.69
2019-01-09T08:12:38.148Z,1.64
2019-01-09T08:15:07.883Z,1.55
2019-01-09T08:17:36.779Z,1.54
2019-01-09T08:20:06.390Z,1.57
2019-01-09T08:22:35.345Z,1.47
2019-01-09T08:25:04.357Z,1.46
2019-01-09T08:27:33.310Z,1.59
2019-01-09T08:30:02.135Z,1.52
2019-01-09T08:32:31.128Z,1.46
2019-01-09T08:34:59.966Z,1.26
2019-01-09T08:37:28.771Z,1.24
2019-01-09T08:39:57.745Z,1.19
2019-01-09T08:42:26.738Z,1.26
2019-01-09T08:44:55.632Z,1.30
2019-01-09T08:47:24.456Z,1.28
2019-01-09T08:49:53.353Z,1.23
2019-01-09T08:52:22.451Z,1.22
2019-01-09T08:54:51.361Z,1.25
2019-01-09T08:57:20.329Z,1.24
2019-01-09T08:59:49.227Z,1.31
2019-01-09T09:02:18.296Z,1.30
2019-01-09T09:04:47.305Z,1.35
2019-01-09T09:07:17.972Z,1.27
2019-01-09T09:09:46.938Z,1.32
2019-01-09T09:12:15.823Z,1.36
2019-01-09T09:14:44.720Z,1.26
2019-01-09T09:17:13.606Z,1.26
2019-01-09T09:19:42.516Z,1.23
2019-01-09T09:22:11.468Z,1.33
2019-01-09T09:24:40.271Z,1.37
2019-01-09T09:27:09.236Z,1.31
2019-01-09T09:29:38.193Z,1.35
2019-01-09T09:32:07.166Z,1.34
2019-01-09T09:34:35.983Z,1.26
2019-01-09T09:37:04.969Z,1.40
2019-01-09T09:39:33.856Z,1.37
2019-01-09T09:42:02.760Z,1.39
2019-01-09T09:44:31.639Z,1.37
2019-01-09T09:47:00.539Z,1.47
2019-01-09T09:49:29.432Z,1.49
2019-01-09T09:51:58.266Z,1.50
2019-01-09T09:54:27.143Z,1.55
2019-01-09T09:56:56.056Z,1.51
2019-01-09T09:59:24.858Z,1.47
2019-01-09T10:01:53.981Z,1.51
2019-01-09T10:04:22.821Z,1.53
2019-01-09T10:06:51.733Z,1.49
2019-01-09T10:09:20.616Z,1.54
2019-01-09T10:11:49.510Z,1.52
2019-01-09T10:14:18.472Z,1.43
2019-01-09T10:16:47.429Z,1.48
2019-01-09T10:19:16.305Z,1.42
2019-01-09T10:21:45.204Z,1.43
2019-01-09T10:24:14.098Z,1.47
2019-01-09T10:26:42.977Z,1.61
2019-01-09T10:29:11.865Z,1.54
2019-01-09T10:31:40.765Z,1.49
2019-01-09T10:34:09.648Z,1.47
2019-01-09T10:36:38.618Z,1.58
2019-01-09T10:39:09.658Z,1.57
2019-01-09T10:41:38.481Z,1.59
2019-01-09T10:44:07.454Z,1.47
2019-01-09T10:46:36.416Z,1.52
2019-01-09T10:49:05.404Z,1.62
2019-01-09T10:51:34.375Z,1.67
2019-01-09T10:54:03.349Z,1.76
2019-01-09T10:56:32.310Z,1.79
2019-01-09T10:59:01.270Z,1.78
2019-01-09T11:01:30.209Z,1.76
2019-01-09T11:03:59.201Z,1.72
2019-01-09T11:06:28.145Z,1.67
2019-01-09T11:08:56.966Z,1.65
2019-01-09T11:11:25.770Z,1.56
2019-01-09T11:13:54.708Z,1.53
2019-01-09T11:16:23.487Z,1.56
2019-01-09T11:18:52.419Z,1.58
2019-01-09T11:21:21.329Z,1.44
2019-01-09T11:23:50.421Z,1.45
2019-01-09T11:26:19.523Z,1.56
2019-01-09T11:28:48.552Z,1.56
2019-01-09T11:31:17.699Z,1.58
2019-01-09T11:33:46.688Z,1.57
2019-01-09T11:36:15.534Z,1.42
2019-01-09T11:38:44.565Z,1.37
2019-01-09T11:41:13.638Z,1.44
2019-01-09T11:43:42.551Z,1.40
2019-01-09T11:46:11.605Z,1.38
2019-01-09T11:48:40.498Z,1.35
2019-01-09T11:51:09.485Z,1.32
2019-01-09T11:53:38.440Z,1.33
2019-01-09T11:56:07.408Z,1.28
2019-01-09T11:58:36.299Z,1.27
2019-01-09T12:01:05.803Z,1.28
2019-01-09T12:03:34.878Z,1.24
2019-01-09T12:06:03.867Z,1.22
2019-01-09T12:08:32.883Z,1.24
2019-01-09T12:11:02.126Z,1.26
2019-01-09T12:13:31.541Z,1.25
2019-01-09T12:16:08.008Z,1.26
2019-01-09T12:18:31.341Z,1.25
2019-01-09T12:21:00.366Z,1.27
2019-01-09T12:23:29.488Z,1.24
2019-01-09T12:25:58.572Z,1.21
2019-01-09T12:28:27.589Z,1.27
2019-01-09T12:30:56.696Z,1.25
2019-01-09T12:33:25.801Z,1.16
2019-01-09T12:35:54.860Z,1.07
2019-01-09T12:38:23.909Z,1.08
2019-01-09T12:40:52.865Z,1.10
2019-01-09T12:43:21.844Z,1.19
2019-01-09T12:45:50.742Z,1.15
2019-01-09T12:48:19.633Z,1.13
2019-01-09T12:50:48.624Z,0.99
2019-01-09T12:53:17.571Z,0.91
2019-01-09T12:55:46.471Z,0.98
2019-01-09T12:58:15.578Z,1.03
2019-01-09T13:00:44.387Z,1.03
2019-01-09T13:03:14.207Z,1.00
2019-01-09T13:05:43.194Z,1.06
2019-01-09T13:08:12.097Z,1.06
2019-01-09T13:10:40.997Z,1.06
2019-01-09T13:13:09.810Z,0.90
2019-01-09T13:15:38.818Z,0.95
2019-01-09T13:18:07.705Z,0.88
2019-01-09T13:20:36.663Z,0.90
2019-01-09T13:23:05.732Z,0.82
2019-01-09T13:25:34.724Z,0.88
2019-01-09T13:28:03.613Z,0.90
2019-01-09T13:30:32.602Z,0.79
2019-01-09T13:33:01.516Z,0.83
2019-01-09T13:35:30.601Z,0.82
2019-01-09T13:37:59.511Z,0.80
2019-01-09T13:40:28.494Z,0.86
2019-01-09T13:42:57.381Z,0.82
2019-01-09T13:45:26.369Z,0.85
2019-01-09T13:47:55.357Z,0.82
2019-01-09T13:50:24.333Z,0.88
2019-01-09T13:52:53.290Z,0.90
2019-01-09T13:55:22.329Z,0.92
2019-01-09T13:57:51.202Z,0.95
2019-01-09T14:00:21.784Z,1.07
2019-01-09T14:02:50.766Z,1.06
2019-01-09T14:05:19.732Z,1.02
2019-01-09T14:07:48.719Z,1.15
2019-01-09T14:10:19.990Z,1.24
2019-01-09T14:12:48.963Z,1.23
2019-01-09T14:15:19.485Z,1.25
2019-01-09T14:17:48.836Z,1.13
2019-01-09T14:20:18.013Z,1.09
2019-01-09T14:22:47.013Z,1.05
2019-01-09T14:25:16.182Z,1.12
2019-01-09T14:27:45.508Z,1.14
2019-01-09T14:30:20.399Z,1.18
2019-01-09T14:32:49.394Z,1.14
2019-01-09T14:35:18.395Z,1.09
2019-01-09T14:37:47.379Z,1.10
2019-01-09T14:40:16.432Z,1.12
2019-01-09T14:42:45.401Z,1.18
2019-01-09T14:45:14.749Z,1.15
2019-01-09T14:47:43.704Z,1.11
2019-01-09T14:50:16.258Z,1.07
2019-01-09T14:52:45.165Z,1.12
2019-01-09T14:55:14.604Z,0.97
2019-01-09T14:57:44.091Z,0.94
2019-01-09T15:00:21.692Z,0.95
2019-01-09T15:02:50.669Z,1.01
2019-01-09T15:05:19.690Z,1.00
2019-01-09T15:07:48.615Z,0.96
2019-01-09T15:10:19.887Z,0.95
2019-01-09T15:12:49.089Z,0.95
2019-01-09T15:15:18.232Z,0.84
2019-01-09T15:17:47.308Z,0.75
2019-01-09T15:20:17.473Z,0.82
2019-01-09T15:22:46.368Z,0.82
2019-01-09T15:25:15.554Z,0.82
2019-01-09T15:27:44.531Z,0.76
2019-01-09T15:30:22.291Z,0.72
2019-01-09T15:32:51.294Z,0.62
2019-01-09T15:35:20.323Z,0.60
2019-01-09T15:37:49.302Z,0.59
2019-01-09T15:40:20.277Z,0.54
2019-01-09T15:42:49.666Z,0.46
2019-01-09T15:45:18.630Z,0.44
2019-01-09T15:47:47.729Z,0.48
2019-01-09T15:50:18.069Z,0.50
2019-01-09T15:52:47.071Z,0.46
2019-01-09T15:55:16.380Z,0.40
2019-01-09T15:57:45.533Z,0.40
2019-01-09T16:00:26.057Z,0.45
2019-01-09T16:02:55.556Z,0.38
2019-01-09T16:05:24.656Z,0.35
2019-01-09T16:07:53.881Z,0.37
2019-01-09T16:10:22.856Z,0.37
2019-01-09T16:12:51.833Z,0.38
2019-01-09T16:15:20.836Z,0.38
2019-01-09T16:17:49.903Z,0.34
2019-01-09T16:20:19.377Z,0.31
2019-01-09T16:22:48.342Z,0.40
2019-01-09T16:25:17.642Z,0.37
2019-01-09T16:27:46.529Z,0.40
2019-01-09T16:30:45.461Z,0.31
2019-01-09T16:33:14.307Z,0.23
2019-01-09T16:35:43.323Z,0.21
2019-01-09T16:38:12.281Z,0.21
2019-01-09T16:40:41.283Z,0.23
2019-01-09T16:43:10.125Z,0.25
2019-01-09T16:45:39.437Z,0.22
2019-01-09T16:48:08.343Z,0.27
2019-01-09T16:50:37.343Z,0.23
2019-01-09T16:53:06.322Z,0.24
2019-01-09T16:55:35.310Z,0.16
2019-01-09T16:58:04.458Z,0.25
2019-01-09T17:00:33.473Z,0.30
2019-01-09T17:03:02.365Z,0.33
2019-01-09T17:05:31.376Z,0.24
2019-01-09T17:08:00.349Z,0.20
2019-01-09T17:10:32.543Z,0.18
2019-01-09T17:13:00.108Z,0.19
2019-01-09T17:15:29.050Z,0.17
2019-01-09T17:17:58.077Z,0.20
2019-01-09T17:20:27.103Z,0.22
2019-01-09T17:22:56.455Z,0.26
2019-01-09T17:25:25.450Z,0.23
2019-01-09T17:27:54.335Z,0.20
2019-01-09T17:30:25.069Z,0.27
2019-01-09T17:32:54.107Z,0.23
2019-01-09T17:35:23.259Z,0.29
2019-01-09T17:37:52.299Z,0.23
2019-01-09T17:40:21.641Z,0.24
2019-01-09T17:42:51.261Z,0.17
2019-01-09T17:45:20.400Z,0.28
2019-01-09T17:47:49.364Z,0.18
2019-01-09T17:50:24.561Z,0.17
2019-01-09T17:52:53.902Z,0.20
2019-01-09T17:55:22.872Z,0.29
2019-01-09T17:57:51.764Z,0.33
2019-01-09T18:00:23.218Z,0.23
2019-01-09T18:02:52.167Z,0.22
2019-01-09T18:05:21.398Z,0.23
2019-01-09T18:07:52.118Z,0.30
2019-01-09T18:10:22.005Z,0.23
2019-01-09T18:12:50.935Z,0.24
2019-01-09T18:15:21.486Z,0.29
2019-01-09T18:17:50.552Z,0.19
2019-01-09T18:20:19.847Z,0.20
2019-01-09T18:22:48.824Z,0.17
2019-01-09T18:25:19.692Z,0.24
2019-01-09T18:27:48.709Z,0.23
2019-01-09T18:30:20.981Z,0.25
2019-01-09T18:33:13.742Z,0.26
2019-01-09T18:36:20.719Z,0.26
2019-01-09T18:39:21.707Z,0.28
2019-01-09T18:42:36.923Z,0.27
2019-01-09T18:45:32.702Z,0.32
2019-01-09T18:48:27.547Z,0.25
2019-01-09T18:51:46.290Z,0.31
2019-01-09T18:54:15.274Z,0.34
2019-01-09T18:56:44.208Z,0.36
2019-01-09T18:59:13.489Z,0.34
2019-01-09T19:01:42.522Z,0.36
2019-01-09T19:04:11.568Z,0.41
2019-01-09T19:06:40.565Z,0.40
2019-01-09T19:09:10.781Z,0.42
2019-01-09T19:11:39.789Z,0.41
2019-01-09T19:14:08.764Z,0.50
2019-01-09T19:16:37.760Z,0.48
2019-01-09T19:19:06.731Z,0.48
2019-01-09T19:21:35.713Z,0.54
2019-01-09T19:24:04.878Z,0.57
2019-01-09T19:26:33.776Z,0.62
2019-01-09T19:29:02.778Z,0.63
2019-01-09T19:31:31.950Z,0.64
2019-01-09T19:34:00.876Z,0.61
2019-01-09T19:36:29.771Z,0.62
2019-01-09T19:38:58.732Z,0.59
2019-01-09T19:41:27.652Z,0.57
2019-01-09T19:43:56.545Z,0.49
2019-01-09T19:46:25.606Z,0.50
2019-01-09T19:48:54.571Z,0.49
2019-01-09T19:51:23.465Z,0.52
2019-01-09T19:53:52.475Z,0.56
2019-01-09T19:56:21.468Z,0.57
2019-01-09T19:58:50.449Z,0.59
2019-01-09T20:01:19.573Z,0.65
2019-01-09T20:03:48.616Z,0.67
2019-01-09T20:06:17.597Z,0.67
2019-01-09T20:08:46.564Z,0.65
2019-01-09T20:11:15.538Z,0.68
2019-01-09T20:13:44.495Z,0.62
2019-01-09T20:16:13.465Z,0.67
2019-01-09T20:18:42.427Z,0.65
2019-01-09T20:21:11.414Z,0.69
2019-01-09T20:23:40.394Z,0.61
2019-01-09T20:26:09.348Z,0.65
2019-01-09T20:28:38.398Z,0.64
2019-01-09T20:31:07.367Z,0.62
2019-01-09T20:33:36.355Z,0.65
2019-01-09T20:36:05.581Z,0.61
2019-01-09T20:38:34.551Z,0.57
2019-01-09T20:41:03.566Z,0.60
2019-01-09T20:43:32.565Z,0.59
2019-01-09T20:46:01.539Z,0.60
2019-01-09T20:48:30.523Z,0.55
2019-01-09T20:50:59.440Z,0.62
2019-01-09T20:53:28.455Z,0.65
2019-01-09T20:55:57.425Z,0.64
2019-01-09T20:58:26.397Z,0.66
2019-01-09T21:00:55.301Z,0.70
2019-01-09T21:03:24.284Z,0.66
2019-01-09T21:05:53.834Z,0.60
2019-01-09T21:08:23.073Z,0.62
2019-01-09T21:10:51.964Z,0.57
2019-01-09T21:13:20.926Z,0.60
2019-01-09T21:15:49.867Z,0.58
2019-01-09T21:18:18.799Z,0.58
2019-01-09T21:20:47.692Z,0.56
2019-01-09T21:23:16.580Z,0.54
2019-01-09T21:25:45.646Z,0.54
2019-01-09T21:28:14.599Z,0.56
2019-01-09T21:30:43.585Z,0.55
2019-01-09T21:33:12.501Z,0.59
2019-01-09T21:35:41.500Z,0.59
2019-01-09T21:38:10.723Z,0.52
2019-01-09T21:40:39.747Z,0.51
2019-01-09T21:43:08.708Z,0.52
2019-01-09T21:45:37.701Z,0.51
2019-01-09T21:48:07.024Z,0.49
2019-01-09T21:50:35.948Z,0.49
2019-01-09T21:53:05.429Z,0.48
2019-01-09T21:55:34.436Z,0.49
2019-01-09T21:58:03.260Z,0.54
2019-01-09T22:00:32.205Z,0.55
2019-01-09T22:03:01.156Z,0.56
2019-01-09T22:05:30.330Z,0.54
2019-01-09T22:07:59.303Z,0.50
2019-01-09T22:10:33.775Z,0.51
2019-01-09T22:13:02.941Z,0.59
2019-01-09T22:15:31.916Z,0.57
2019-01-09T22:18:00.874Z,0.56
2019-01-09T22:20:29.846Z,0.58
2019-01-09T22:22:58.807Z,0.54
2019-01-09T22:25:27.726Z,0.55
2019-01-09T22:27:56.697Z,0.48
2019-01-09T22:30:26.941Z,0.53
2019-01-09T22:32:55.910Z,0.54
2019-01-09T22:35:24.886Z,0.56
2019-01-09T22:37:53.950Z,0.56
2019-01-09T22:40:22.906Z,0.54
2019-01-09T22:42:51.953Z,0.59
2019-01-09T22:45:21.119Z,0.58
2019-01-09T22:47:50.093Z,0.59
2019-01-09T22:50:21.211Z,0.56
2019-01-09T22:52:50.179Z,0.50
2019-01-09T22:55:19.131Z,0.46
2019-01-09T22:57:48.207Z,0.46
2019-01-09T23:00:37.425Z,0.43
2019-01-09T23:03:07.078Z,0.45
2019-01-09T23:05:36.433Z,0.45
2019-01-09T23:08:05.733Z,0.43
2019-01-09T23:10:34.602Z,0.47
2019-01-09T23:13:03.681Z,0.47
2019-01-09T23:15:32.660Z,0.42
2019-01-09T23:18:01.581Z,0.48
2019-01-09T23:20:30.790Z,0.50
2019-01-09T23:22:59.856Z,0.48
2019-01-09T23:25:28.816Z,0.39
2019-01-09T23:27:57.720Z,0.46
2019-01-09T23:30:26.934Z,0.44
2019-01-09T23:32:56.454Z,0.39
2019-01-09T23:35:25.436Z,0.40
2019-01-09T23:37:54.410Z,0.37
2019-01-09T23:40:23.462Z,0.42
2019-01-09T23:42:52.516Z,0.39
2019-01-09T23:45:21.400Z,0.43
2019-01-09T23:47:50.258Z,0.41
2019-01-09T23:50:19.211Z,0.43
2019-01-09T23:52:48.219Z,0.47
2019-01-09T23:55:17.187Z,0.45
2019-01-09T23:57:46.245Z,0.45
